CMM626 SEQM-SKBQ
Flight info
| Callsign | CMM626 |
|---|---|
| Flight time | 1h 44m |
| Altitude | 39000 |
| Route | ARNOK3A ARNOK UP778 RNG W3 MGN W46 VOVLU VOVLU4A |
| Aircraft | A319/M-SDE3FGHIRWY/LB1 |
Departure
| Time | 2026-04-30 13:08 |
|---|---|
| Airport | Mariscal Sucre International Airport (SEQM) |
Arrival
| Time | 2026-04-30 14:52 |
|---|---|
| Airport | Ernesto Cortissoz International Airport (SKBQ) |
| Time | Latitude | Longitude | Altitude | Speed | Heading |
|---|---|---|---|---|---|
| 2026-04-30 12:56 | -0.12315 | -78.35933 | 7984 ft | 0 kts | 268° |
| 2026-04-30 12:58 | -0.12315 | -78.35929 | 7984 ft | 3 kts | 267° |
| 2026-04-30 12:58 | -0.12312 | -78.35903 | 7984 ft | 4 kts | 255° |
| 2026-04-30 12:58 | -0.12302 | -78.35878 | 7989 ft | 4 kts | 237° |
| 2026-04-30 12:58 | -0.12285 | -78.35858 | 7988 ft | 4 kts | 213° |
| 2026-04-30 12:59 | -0.12261 | -78.35848 | 7984 ft | 4 kts | 183° |
| 2026-04-30 12:59 | -0.12254 | -78.35848 | 7984 ft | 0 kts | 178° |
| 2026-04-30 13:01 | -0.12259 | -78.35848 | 7984 ft | 2 kts | 178° |
| 2026-04-30 13:01 | -0.12270 | -78.35848 | 7984 ft | 2 kts | 179° |
| 2026-04-30 13:01 | -0.12278 | -78.35848 | 7984 ft | 0 kts | 179° |
| 2026-04-30 13:01 | -0.12279 | -78.35848 | 7984 ft | 0 kts | 179° |
| 2026-04-30 13:02 | -0.12305 | -78.35846 | 7984 ft | 6 kts | 176° |
| 2026-04-30 13:02 | -0.12376 | -78.35843 | 7984 ft | 14 kts | 177° |
| 2026-04-30 13:02 | -0.12503 | -78.35837 | 7984 ft | 21 kts | 178° |
| 2026-04-30 13:03 | -0.12655 | -78.35831 | 7984 ft | 17 kts | 173° |
| 2026-04-30 13:03 | -0.12700 | -78.35785 | 7984 ft | 16 kts | 89° |
| 2026-04-30 13:03 | -0.12690 | -78.35655 | 7985 ft | 13 kts | 87° |
| 2026-04-30 13:03 | -0.12736 | -78.35597 | 7986 ft | 17 kts | 176° |
| 2026-04-30 13:04 | -0.12895 | -78.35591 | 7986 ft | 28 kts | 178° |
| 2026-04-30 13:04 | -0.13088 | -78.35583 | 7989 ft | 20 kts | 178° |
| 2026-04-30 13:04 | -0.13172 | -78.35580 | 7986 ft | 13 kts | 178° |
| 2026-04-30 13:04 | -0.13274 | -78.35575 | 7986 ft | 17 kts | 177° |
| 2026-04-30 13:05 | -0.13403 | -78.35569 | 7985 ft | 20 kts | 177° |
| 2026-04-30 13:05 | -0.13556 | -78.35563 | 7985 ft | 24 kts | 178° |
| 2026-04-30 13:05 | -0.13733 | -78.35556 | 7984 ft | 27 kts | 177° |
| 2026-04-30 13:06 | -0.14002 | -78.35544 | 7989 ft | 11 kts | 178° |
| 2026-04-30 13:06 | -0.14112 | -78.35540 | 7985 ft | 20 kts | 178° |
| 2026-04-30 13:06 | -0.14250 | -78.35499 | 7991 ft | 20 kts | 122° |
| 2026-04-30 13:06 | -0.14215 | -78.35371 | 7986 ft | 27 kts | 25° |
| 2026-04-30 13:07 | -0.13899 | -78.35378 | 7984 ft | 74 kts | 358° |
| 2026-04-30 13:07 | -0.13191 | -78.35405 | 7989 ft | 128 kts | 357° |
| 2026-04-30 13:07 | -0.12140 | -78.35453 | 7987 ft | 174 kts | 357° |
| 2026-04-30 13:07 | -0.10882 | -78.35507 | 8434 ft | 179 kts | 357° |
| 2026-04-30 13:08 | -0.09630 | -78.35577 | 9017 ft | 181 kts | 356° |
| 2026-04-30 13:08 | -0.08394 | -78.35780 | 9444 ft | 184 kts | 343° |
| 2026-04-30 13:08 | -0.07159 | -78.36177 | 9766 ft | 194 kts | 340° |
| 2026-04-30 13:08 | -0.05817 | -78.36656 | 9929 ft | 216 kts | 340° |
| 2026-04-30 13:09 | -0.04329 | -78.37186 | 10112 ft | 239 kts | 341° |
| 2026-04-30 13:09 | -0.02680 | -78.37764 | 10365 ft | 263 kts | 342° |
| 2026-04-30 13:09 | -0.00867 | -78.38387 | 10683 ft | 287 kts | 342° |
| 2026-04-30 13:09 | 0.01079 | -78.39041 | 11187 ft | 300 kts | 342° |
| 2026-04-30 13:10 | 0.03079 | -78.39704 | 11904 ft | 305 kts | 343° |
| 2026-04-30 13:10 | 0.05112 | -78.40375 | 12603 ft | 310 kts | 343° |
| 2026-04-30 13:10 | 0.07148 | -78.41046 | 13331 ft | 314 kts | 343° |
| 2026-04-30 13:10 | 0.09234 | -78.41735 | 14016 ft | 317 kts | 343° |
| 2026-04-30 13:11 | 0.11332 | -78.42431 | 14714 ft | 320 kts | 343° |
| 2026-04-30 13:11 | 0.13484 | -78.43039 | 15367 ft | 322 kts | 356° |
| 2026-04-30 13:11 | 0.15671 | -78.42760 | 16014 ft | 319 kts | 25° |
| 2026-04-30 13:11 | 0.17513 | -78.41557 | 16663 ft | 318 kts | 41° |
| 2026-04-30 13:12 | 0.19165 | -78.40088 | 17348 ft | 318 kts | 45° |
| 2026-04-30 13:12 | 0.20751 | -78.38532 | 17963 ft | 321 kts | 47° |
| 2026-04-30 13:12 | 0.22341 | -78.36931 | 18484 ft | 330 kts | 47° |
| 2026-04-30 13:13 | 0.25777 | -78.33547 | 18916 ft | 360 kts | 45° |
| 2026-04-30 13:13 | 0.27611 | -78.31813 | 19386 ft | 366 kts | 45° |
| 2026-04-30 13:13 | 0.31363 | -78.28338 | 20431 ft | 374 kts | 44° |
| 2026-04-30 13:14 | 0.33280 | -78.26566 | 20955 ft | 377 kts | 44° |
| 2026-04-30 13:14 | 0.35212 | -78.24774 | 21454 ft | 380 kts | 44° |
| 2026-04-30 13:14 | 0.39119 | -78.21143 | 22380 ft | 387 kts | 44° |
| 2026-04-30 13:15 | 0.41100 | -78.19307 | 22820 ft | 390 kts | 44° |
| 2026-04-30 13:15 | 0.45104 | -78.15581 | 23686 ft | 396 kts | 44° |
| 2026-04-30 13:15 | 0.47126 | -78.13692 | 24108 ft | 399 kts | 44° |
| 2026-04-30 13:16 | 0.49165 | -78.11793 | 24510 ft | 402 kts | 44° |
| 2026-04-30 13:16 | 0.51352 | -78.10027 | 24889 ft | 407 kts | 38° |
| 2026-04-30 13:16 | 0.53628 | -78.08332 | 25270 ft | 409 kts | 37° |
| 2026-04-30 13:17 | 0.58194 | -78.04932 | 26024 ft | 414 kts | 37° |
| 2026-04-30 13:17 | 0.60514 | -78.03204 | 26388 ft | 417 kts | 37° |
| 2026-04-30 13:17 | 0.65194 | -77.99719 | 27090 ft | 422 kts | 37° |
| 2026-04-30 13:18 | 0.67556 | -77.97964 | 27458 ft | 424 kts | 37° |
| 2026-04-30 13:18 | 0.72321 | -77.94420 | 28142 ft | 428 kts | 37° |
| 2026-04-30 13:18 | 0.74716 | -77.92638 | 28478 ft | 430 kts | 37° |
| 2026-04-30 13:19 | 0.77126 | -77.90842 | 28808 ft | 433 kts | 37° |
| 2026-04-30 13:19 | 0.79512 | -77.89060 | 29121 ft | 435 kts | 37° |
| 2026-04-30 13:19 | 0.82047 | -77.87373 | 29429 ft | 438 kts | 29° |
| 2026-04-30 13:19 | 0.84712 | -77.85865 | 29760 ft | 441 kts | 29° |
| 2026-04-30 13:20 | 0.87384 | -77.84355 | 30096 ft | 442 kts | 29° |
| 2026-04-30 13:20 | 0.90069 | -77.82837 | 30414 ft | 445 kts | 29° |
| 2026-04-30 13:20 | 0.92770 | -77.81307 | 30690 ft | 448 kts | 29° |
| 2026-04-30 13:20 | 0.95457 | -77.79781 | 30953 ft | 451 kts | 29° |
| 2026-04-30 13:21 | 0.98192 | -77.78226 | 31205 ft | 454 kts | 29° |
| 2026-04-30 13:21 | 1.00946 | -77.76655 | 31452 ft | 457 kts | 29° |
| 2026-04-30 13:21 | 1.03719 | -77.75077 | 31698 ft | 460 kts | 29° |
| 2026-04-30 13:22 | 1.09311 | -77.71903 | 32257 ft | 464 kts | 29° |
| 2026-04-30 13:22 | 1.12138 | -77.70301 | 32604 ft | 464 kts | 29° |
| 2026-04-30 13:22 | 1.17764 | -77.67110 | 33290 ft | 466 kts | 29° |
| 2026-04-30 13:23 | 1.20589 | -77.65502 | 33635 ft | 466 kts | 29° |
| 2026-04-30 13:23 | 1.26231 | -77.62296 | 34319 ft | 468 kts | 29° |
| 2026-04-30 13:24 | 1.31871 | -77.59094 | 35011 ft | 467 kts | 29° |
| 2026-04-30 13:24 | 1.37478 | -77.55906 | 35714 ft | 465 kts | 28° |
| 2026-04-30 13:25 | 1.43126 | -77.52694 | 36152 ft | 464 kts | 28° |
| 2026-04-30 13:25 | 1.48724 | -77.49511 | 36161 ft | 463 kts | 28° |
| 2026-04-30 13:26 | 1.62717 | -77.41579 | 36148 ft | 462 kts | 28° |
| 2026-04-30 13:28 | 1.76682 | -77.33634 | 36132 ft | 463 kts | 28° |
| 2026-04-30 13:28 | 1.85078 | -77.28861 | 36127 ft | 463 kts | 28° |
| 2026-04-30 13:29 | 1.96264 | -77.22505 | 36080 ft | 462 kts | 28° |
| 2026-04-30 13:31 | 2.10087 | -77.14658 | 36072 ft | 463 kts | 28° |
| 2026-04-30 13:32 | 2.24081 | -77.06690 | 36073 ft | 463 kts | 28° |
| 2026-04-30 13:33 | 2.35249 | -77.00326 | 36086 ft | 462 kts | 28° |
| 2026-04-30 13:34 | 2.43601 | -76.95582 | 36103 ft | 462 kts | 28° |
| 2026-04-30 13:35 | 2.54768 | -76.89235 | 36110 ft | 461 kts | 28° |
| 2026-04-30 13:36 | 2.65937 | -76.82874 | 36091 ft | 461 kts | 28° |
| 2026-04-30 13:36 | 2.74265 | -76.78131 | 36089 ft | 461 kts | 28° |
| 2026-04-30 13:37 | 2.82640 | -76.73369 | 36071 ft | 461 kts | 28° |
| 2026-04-30 13:38 | 2.91006 | -76.68618 | 36053 ft | 462 kts | 28° |
| 2026-04-30 13:39 | 3.02151 | -76.62271 | 36027 ft | 462 kts | 28° |
| 2026-04-30 13:40 | 3.10544 | -76.57486 | 36009 ft | 463 kts | 28° |
| 2026-04-30 13:40 | 3.16120 | -76.54308 | 36012 ft | 462 kts | 28° |
| 2026-04-30 13:41 | 3.21715 | -76.51119 | 35995 ft | 463 kts | 28° |
| 2026-04-30 13:41 | 3.27322 | -76.47919 | 35999 ft | 463 kts | 28° |
| 2026-04-30 13:42 | 3.32937 | -76.44726 | 36001 ft | 464 kts | 28° |
| 2026-04-30 13:42 | 3.41441 | -76.40129 | 35997 ft | 461 kts | 19° |
| 2026-04-30 13:43 | 3.47450 | -76.37836 | 35998 ft | 462 kts | 18° |
| 2026-04-30 13:43 | 3.53459 | -76.35550 | 36000 ft | 462 kts | 19° |
| 2026-04-30 13:44 | 3.59432 | -76.33270 | 35999 ft | 463 kts | 19° |
| 2026-04-30 13:44 | 3.65450 | -76.30973 | 35999 ft | 463 kts | 18° |
| 2026-04-30 13:45 | 3.74480 | -76.27520 | 35987 ft | 463 kts | 19° |
| 2026-04-30 13:46 | 3.80497 | -76.25215 | 35993 ft | 463 kts | 18° |
| 2026-04-30 13:46 | 3.86526 | -76.22917 | 35979 ft | 463 kts | 18° |
| 2026-04-30 13:47 | 3.92555 | -76.20617 | 35997 ft | 464 kts | 18° |
| 2026-04-30 13:47 | 3.98583 | -76.18313 | 35999 ft | 464 kts | 18° |
| 2026-04-30 13:48 | 4.04608 | -76.16005 | 36000 ft | 464 kts | 18° |
| 2026-04-30 13:48 | 4.10612 | -76.13709 | 35995 ft | 463 kts | 18° |
| 2026-04-30 13:49 | 4.16635 | -76.11405 | 36007 ft | 463 kts | 18° |
| 2026-04-30 13:49 | 4.22661 | -76.09102 | 36006 ft | 463 kts | 18° |
| 2026-04-30 13:50 | 4.28689 | -76.06801 | 36007 ft | 463 kts | 18° |
| 2026-04-30 13:50 | 4.37682 | -76.03366 | 36007 ft | 463 kts | 18° |
| 2026-04-30 13:51 | 4.43699 | -76.01062 | 36012 ft | 463 kts | 19° |
| 2026-04-30 13:51 | 4.49717 | -75.98754 | 36017 ft | 463 kts | 19° |
| 2026-04-30 13:52 | 4.55734 | -75.96445 | 36010 ft | 462 kts | 19° |
| 2026-04-30 13:52 | 4.61739 | -75.94144 | 36011 ft | 461 kts | 19° |
| 2026-04-30 13:53 | 4.66727 | -75.92241 | 36017 ft | 461 kts | 19° |
| 2026-04-30 13:53 | 4.72731 | -75.89943 | 36007 ft | 461 kts | 19° |
| 2026-04-30 13:54 | 4.78728 | -75.87646 | 36012 ft | 461 kts | 19° |
| 2026-04-30 13:54 | 4.84720 | -75.85349 | 36030 ft | 461 kts | 19° |
| 2026-04-30 13:55 | 4.90704 | -75.83056 | 36046 ft | 460 kts | 19° |
| 2026-04-30 13:55 | 4.96690 | -75.80761 | 36060 ft | 459 kts | 18° |
| 2026-04-30 13:56 | 5.02617 | -75.78489 | 36092 ft | 459 kts | 19° |
| 2026-04-30 13:56 | 5.08594 | -75.76197 | 36061 ft | 460 kts | 19° |
| 2026-04-30 13:57 | 5.14572 | -75.73908 | 36027 ft | 459 kts | 19° |
| 2026-04-30 13:57 | 5.20536 | -75.71622 | 36155 ft | 459 kts | 19° |
| 2026-04-30 13:58 | 5.29484 | -75.68176 | 36200 ft | 459 kts | 19° |
| 2026-04-30 13:59 | 5.35456 | -75.65881 | 36201 ft | 459 kts | 19° |
| 2026-04-30 13:59 | 5.41426 | -75.63591 | 36201 ft | 459 kts | 19° |
| 2026-04-30 14:00 | 5.47381 | -75.61456 | 36194 ft | 455 kts | 9° |
| 2026-04-30 14:00 | 5.56727 | -75.59718 | 36193 ft | 455 kts | 8° |
| 2026-04-30 14:01 | 5.62956 | -75.58576 | 36191 ft | 455 kts | 8° |
| 2026-04-30 14:01 | 5.69144 | -75.57442 | 36207 ft | 454 kts | 8° |
| 2026-04-30 14:02 | 5.75374 | -75.56295 | 36210 ft | 455 kts | 8° |
| 2026-04-30 14:02 | 5.81597 | -75.55138 | 36211 ft | 455 kts | 8° |
| 2026-04-30 14:03 | 5.87828 | -75.53988 | 36212 ft | 455 kts | 8° |
| 2026-04-30 14:03 | 5.94052 | -75.52841 | 36202 ft | 455 kts | 8° |
| 2026-04-30 14:04 | 6.00274 | -75.51695 | 36211 ft | 455 kts | 8° |
| 2026-04-30 14:04 | 6.06465 | -75.50535 | 36221 ft | 455 kts | 8° |
| 2026-04-30 14:05 | 6.12712 | -75.49342 | 36222 ft | 455 kts | 8° |
| 2026-04-30 14:05 | 6.18913 | -75.48167 | 36241 ft | 456 kts | 8° |
| 2026-04-30 14:06 | 6.28269 | -75.46393 | 36218 ft | 456 kts | 8° |
| 2026-04-30 14:07 | 6.37605 | -75.44623 | 36200 ft | 456 kts | 8° |
| 2026-04-30 14:08 | 6.46948 | -75.42855 | 36199 ft | 456 kts | 8° |
| 2026-04-30 14:08 | 6.56322 | -75.41078 | 36175 ft | 457 kts | 8° |
| 2026-04-30 14:09 | 6.62558 | -75.39891 | 36086 ft | 457 kts | 8° |
| 2026-04-30 14:10 | 6.71915 | -75.38107 | 36072 ft | 457 kts | 8° |
| 2026-04-30 14:10 | 6.78181 | -75.36924 | 36060 ft | 458 kts | 8° |
| 2026-04-30 14:11 | 6.84461 | -75.35741 | 36044 ft | 458 kts | 8° |
| 2026-04-30 14:11 | 6.90718 | -75.34552 | 36031 ft | 458 kts | 8° |
| 2026-04-30 14:12 | 6.96987 | -75.33357 | 36025 ft | 459 kts | 8° |
| 2026-04-30 14:12 | 7.03270 | -75.32164 | 36016 ft | 460 kts | 8° |
| 2026-04-30 14:13 | 7.09513 | -75.30982 | 36016 ft | 460 kts | 8° |
| 2026-04-30 14:13 | 7.15796 | -75.29787 | 35992 ft | 460 kts | 8° |
| 2026-04-30 14:14 | 7.22102 | -75.28580 | 35978 ft | 460 kts | 8° |
| 2026-04-30 14:14 | 7.28382 | -75.27379 | 35984 ft | 461 kts | 8° |
| 2026-04-30 14:15 | 7.34688 | -75.26183 | 35979 ft | 461 kts | 7° |
| 2026-04-30 14:15 | 7.40993 | -75.24987 | 35971 ft | 461 kts | 8° |
| 2026-04-30 14:16 | 7.47314 | -75.23788 | 35960 ft | 462 kts | 8° |
| 2026-04-30 14:16 | 7.53629 | -75.22582 | 35970 ft | 461 kts | 8° |
| 2026-04-30 14:17 | 7.59937 | -75.21368 | 35961 ft | 462 kts | 8° |
| 2026-04-30 14:17 | 7.66258 | -75.20165 | 35950 ft | 462 kts | 8° |
| 2026-04-30 14:18 | 7.72548 | -75.18971 | 35941 ft | 462 kts | 7° |
| 2026-04-30 14:18 | 7.82046 | -75.17163 | 35923 ft | 462 kts | 7° |
| 2026-04-30 14:19 | 7.91528 | -75.15355 | 35862 ft | 462 kts | 8° |
| 2026-04-30 14:20 | 7.97817 | -75.14153 | 35847 ft | 463 kts | 8° |
| 2026-04-30 14:20 | 8.07333 | -75.12333 | 35854 ft | 464 kts | 7° |
| 2026-04-30 14:21 | 8.13693 | -75.11119 | 35842 ft | 464 kts | 7° |
| 2026-04-30 14:22 | 8.23204 | -75.09304 | 35851 ft | 465 kts | 7° |
| 2026-04-30 14:22 | 8.32735 | -75.07475 | 35850 ft | 465 kts | 7° |
| 2026-04-30 14:23 | 8.45399 | -75.05054 | 35852 ft | 464 kts | 7° |
| 2026-04-30 14:24 | 8.54911 | -75.03236 | 35853 ft | 463 kts | 7° |
| 2026-04-30 14:25 | 8.67575 | -75.00807 | 35722 ft | 460 kts | 7° |
| 2026-04-30 14:26 | 8.73789 | -74.99630 | 34920 ft | 454 kts | 8° |
| 2026-04-30 14:26 | 8.76884 | -74.99033 | 34495 ft | 451 kts | 8° |
| 2026-04-30 14:26 | 8.83021 | -74.97847 | 33618 ft | 445 kts | 8° |
| 2026-04-30 14:27 | 8.86056 | -74.97264 | 33182 ft | 442 kts | 8° |
| 2026-04-30 14:27 | 8.89063 | -74.96688 | 32750 ft | 438 kts | 8° |
| 2026-04-30 14:27 | 8.92046 | -74.96117 | 32327 ft | 435 kts | 8° |
| 2026-04-30 14:28 | 8.97949 | -74.94984 | 31481 ft | 428 kts | 9° |
| 2026-04-30 14:28 | 9.00864 | -74.94424 | 31083 ft | 425 kts | 9° |
| 2026-04-30 14:28 | 9.03761 | -74.93868 | 30662 ft | 422 kts | 9° |
| 2026-04-30 14:28 | 9.06600 | -74.93324 | 30254 ft | 419 kts | 9° |
| 2026-04-30 14:29 | 9.12288 | -74.92233 | 29456 ft | 413 kts | 9° |
| 2026-04-30 14:29 | 9.16993 | -74.91325 | 28809 ft | 408 kts | 9° |
| 2026-04-30 14:30 | 9.26185 | -74.89562 | 27540 ft | 400 kts | 10° |
| 2026-04-30 14:31 | 9.31599 | -74.88517 | 26769 ft | 395 kts | 10° |
| 2026-04-30 14:31 | 9.36955 | -74.87468 | 25977 ft | 389 kts | 11° |
| 2026-04-30 14:31 | 9.39606 | -74.86941 | 25565 ft | 386 kts | 11° |
| 2026-04-30 14:32 | 9.44862 | -74.85890 | 25336 ft | 385 kts | 11° |
| 2026-04-30 14:32 | 9.47488 | -74.85367 | 25024 ft | 382 kts | 11° |
| 2026-04-30 14:32 | 9.50100 | -74.84940 | 24610 ft | 379 kts | 4° |
| 2026-04-30 14:33 | 9.52725 | -74.84908 | 24202 ft | 376 kts | 359° |
| 2026-04-30 14:33 | 9.57917 | -74.84964 | 23377 ft | 370 kts | 360° |
| 2026-04-30 14:33 | 9.60484 | -74.84985 | 22969 ft | 367 kts | 360° |
| 2026-04-30 14:34 | 9.63028 | -74.85005 | 22560 ft | 364 kts | 360° |
| 2026-04-30 14:34 | 9.65521 | -74.85025 | 22157 ft | 362 kts | 360° |
| 2026-04-30 14:34 | 9.68035 | -74.85050 | 21754 ft | 359 kts | 360° |
| 2026-04-30 14:34 | 9.70525 | -74.85074 | 21352 ft | 357 kts | 360° |
| 2026-04-30 14:35 | 9.74666 | -74.85112 | 20680 ft | 353 kts | 0° |
| 2026-04-30 14:35 | 9.77904 | -74.85139 | 20152 ft | 350 kts | 0° |
| 2026-04-30 14:35 | 9.80335 | -74.85158 | 19751 ft | 348 kts | 0° |
| 2026-04-30 14:36 | 9.82753 | -74.85179 | 19358 ft | 346 kts | 0° |
| 2026-04-30 14:36 | 9.85157 | -74.85203 | 18959 ft | 344 kts | 0° |
| 2026-04-30 14:36 | 9.87545 | -74.85226 | 18571 ft | 342 kts | 0° |
| 2026-04-30 14:36 | 9.89916 | -74.85248 | 18182 ft | 340 kts | 0° |
| 2026-04-30 14:37 | 9.92273 | -74.85266 | 17797 ft | 338 kts | 0° |
| 2026-04-30 14:37 | 9.94621 | -74.85282 | 17411 ft | 337 kts | 0° |
| 2026-04-30 14:37 | 9.96945 | -74.85302 | 17024 ft | 335 kts | 0° |
| 2026-04-30 14:37 | 9.99268 | -74.85324 | 16637 ft | 333 kts | 0° |
| 2026-04-30 14:38 | 10.01562 | -74.85343 | 16268 ft | 331 kts | 0° |
| 2026-04-30 14:38 | 10.03874 | -74.85359 | 15889 ft | 326 kts | 0° |
| 2026-04-30 14:38 | 10.06134 | -74.85376 | 15504 ft | 324 kts | 360° |
| 2026-04-30 14:38 | 10.08364 | -74.85398 | 15124 ft | 323 kts | 360° |
| 2026-04-30 14:39 | 10.10606 | -74.85421 | 14787 ft | 320 kts | 360° |
| 2026-04-30 14:39 | 10.12817 | -74.85445 | 14518 ft | 318 kts | 0° |
| 2026-04-30 14:39 | 10.15026 | -74.85466 | 14157 ft | 316 kts | 360° |
| 2026-04-30 14:40 | 10.19415 | -74.85510 | 13438 ft | 314 kts | 0° |
| 2026-04-30 14:40 | 10.21595 | -74.85528 | 13056 ft | 313 kts | 0° |
| 2026-04-30 14:40 | 10.23765 | -74.85545 | 12689 ft | 311 kts | 0° |
| 2026-04-30 14:40 | 10.25927 | -74.85560 | 12321 ft | 309 kts | 0° |
| 2026-04-30 14:41 | 10.28073 | -74.85576 | 11960 ft | 307 kts | 0° |
| 2026-04-30 14:41 | 10.30205 | -74.85593 | 11580 ft | 306 kts | 0° |
| 2026-04-30 14:41 | 10.32331 | -74.85610 | 11214 ft | 304 kts | 0° |
| 2026-04-30 14:41 | 10.34441 | -74.85628 | 10854 ft | 303 kts | 0° |
| 2026-04-30 14:42 | 10.36545 | -74.85648 | 10493 ft | 301 kts | 0° |
| 2026-04-30 14:42 | 10.38634 | -74.85668 | 10120 ft | 300 kts | 0° |
| 2026-04-30 14:42 | 10.40716 | -74.85685 | 9752 ft | 298 kts | 1° |
| 2026-04-30 14:42 | 10.42788 | -74.85704 | 9395 ft | 297 kts | 1° |
| 2026-04-30 14:43 | 10.44821 | -74.85722 | 9039 ft | 296 kts | 1° |
| 2026-04-30 14:43 | 10.46876 | -74.85740 | 8669 ft | 294 kts | 1° |
| 2026-04-30 14:43 | 10.48918 | -74.85760 | 8308 ft | 293 kts | 1° |
| 2026-04-30 14:43 | 10.50951 | -74.85781 | 7949 ft | 291 kts | 1° |
| 2026-04-30 14:44 | 10.52972 | -74.85802 | 7588 ft | 290 kts | 1° |
| 2026-04-30 14:44 | 10.54979 | -74.85820 | 7230 ft | 288 kts | 1° |
| 2026-04-30 14:44 | 10.56975 | -74.85837 | 6873 ft | 286 kts | 1° |
| 2026-04-30 14:44 | 10.58955 | -74.85976 | 6545 ft | 285 kts | 349° |
| 2026-04-30 14:45 | 10.60798 | -74.86634 | 6417 ft | 278 kts | 334° |
| 2026-04-30 14:45 | 10.62446 | -74.87571 | 6278 ft | 264 kts | 332° |
| 2026-04-30 14:45 | 10.63997 | -74.88453 | 6156 ft | 246 kts | 332° |
| 2026-04-30 14:45 | 10.65440 | -74.89267 | 6038 ft | 228 kts | 332° |
| 2026-04-30 14:46 | 10.66770 | -74.90021 | 5936 ft | 210 kts | 333° |
| 2026-04-30 14:46 | 10.67991 | -74.90709 | 5786 ft | 194 kts | 334° |
| 2026-04-30 14:46 | 10.69249 | -74.91078 | 5373 ft | 186 kts | 4° |
| 2026-04-30 14:46 | 10.70087 | -74.91045 | 5284 ft | 177 kts | 4° |
| 2026-04-30 14:47 | 10.71681 | -74.91205 | 4736 ft | 181 kts | 355° |
| 2026-04-30 14:47 | 10.72982 | -74.91139 | 4025 ft | 193 kts | 17° |
| 2026-04-30 14:47 | 10.74208 | -74.90558 | 3576 ft | 195 kts | 35° |
| 2026-04-30 14:47 | 10.75332 | -74.89726 | 3303 ft | 199 kts | 40° |
| 2026-04-30 14:48 | 10.76383 | -74.88857 | 3050 ft | 190 kts | 41° |
| 2026-04-30 14:48 | 10.77034 | -74.88303 | 2890 ft | 179 kts | 41° |
| 2026-04-30 14:48 | 10.77956 | -74.87517 | 2653 ft | 167 kts | 42° |
| 2026-04-30 14:48 | 10.79079 | -74.86556 | 2374 ft | 149 kts | 41° |
| 2026-04-30 14:49 | 10.79851 | -74.85895 | 2191 ft | 142 kts | 41° |
| 2026-04-30 14:49 | 10.80355 | -74.85463 | 2056 ft | 139 kts | 41° |
| 2026-04-30 14:49 | 10.81092 | -74.84833 | 1868 ft | 137 kts | 41° |
| 2026-04-30 14:49 | 10.81810 | -74.84217 | 1687 ft | 136 kts | 40° |
| 2026-04-30 14:50 | 10.83260 | -74.82974 | 1322 ft | 136 kts | 40° |
| 2026-04-30 14:50 | 10.83981 | -74.82356 | 1145 ft | 136 kts | 40° |
| 2026-04-30 14:51 | 10.85419 | -74.81123 | 783 ft | 135 kts | 40° |
| 2026-04-30 14:51 | 10.86142 | -74.80504 | 601 ft | 135 kts | 40° |
| 2026-04-30 14:51 | 10.87568 | -74.79278 | 230 ft | 135 kts | 40° |
| 2026-04-30 14:52 | 10.88278 | -74.78671 | 102 ft | 125 kts | 40° |
| 2026-04-30 14:52 | 10.89190 | -74.77888 | 73 ft | 37 kts | 39° |
| 2026-04-30 14:52 | 10.89310 | -74.77787 | 73 ft | 17 kts | 40° |
| 2026-04-30 14:53 | 10.89369 | -74.77564 | 71 ft | 21 kts | 130° |
| 2026-04-30 14:53 | 10.89233 | -74.77507 | 74 ft | 20 kts | 160° |
| 2026-04-30 14:54 | 10.89014 | -74.77584 | 75 ft | 16 kts | 221° |
| 2026-04-30 14:54 | 10.88854 | -74.77718 | 81 ft | 13 kts | 221° |
| 2026-04-30 14:55 | 10.88791 | -74.77751 | 82 ft | 1 kts | 147° |
| 2026-04-30 14:55 | 10.88786 | -74.77747 | 84 ft | 1 kts | 136° |
| 2026-04-30 14:55 | 10.88763 | -74.77713 | 82 ft | 2 kts | 129° |
| 2026-04-30 14:56 | 10.88761 | -74.77711 | 85 ft | 0 kts | 129° |